Time;durP1;ratioP1;P1;durP2;ratioP2;P2;SDS_P1;SDS_P2;PMS_P1;PMS_P2;Temp;Humidity;BMP_temperature;BMP_pressure;BME280_temperature;BME280_humidity;BME280_pressure;Samples;Min_cycle;Max_cycle;Signal;HPM_P1;HPM_P2
2023/09/26 00:01:41;;;;;;;1999.90;999.90;;;9.90;99.90;;;;;;5035550;28;20030;-81
2023/09/26 00:04:07;;;;;;;1999.90;999.90;;;9.90;99.90;;;;;;5037337;28;20030;-81
2023/09/26 00:06:33;;;;;;;1999.90;999.90;;;9.90;99.90;;;;;;5037148;28;20038;-80
2023/09/26 00:08:58;;;;;;;1999.90;999.90;;;9.80;99.90;;;;;;5037320;28;20391;-81
2023/09/26 00:11:24;;;;;;;1999.90;999.90;;;9.70;99.90;;;;;;5035679;28;20034;-81
2023/09/26 00:13:50;;;;;;;1999.90;999.90;;;9.70;99.90;;;;;;5035677;28;20041;-80
2023/09/26 00:16:15;;;;;;;1999.90;999.90;;;9.70;99.90;;;;;;5036909;28;20041;-81
2023/09/26 00:18:42;;;;;;;1999.90;999.90;;;9.70;99.90;;;;;;5035441;28;20038;-81
2023/09/26 00:21:08;;;;;;;1999.90;999.90;;;9.60;99.90;;;;;;5034165;28;20034;-81
2023/09/26 00:23:35;;;;;;;1999.90;999.90;;;9.60;99.90;;;;;;5035833;28;20034;-81
2023/09/26 00:26:01;;;;;;;1999.90;999.90;;;9.60;99.90;;;;;;5035221;28;20034;-81
2023/09/26 00:28:27;;;;;;;1999.90;999.90;;;9.60;99.90;;;;;;5035536;28;20488;-81
2023/09/26 00:30:56;;;;;;;1999.90;999.90;;;9.70;99.90;;;;;;5035291;28;20034;-80
2023/09/26 00:33:22;;;;;;;1999.90;999.90;;;9.70;99.90;;;;;;5036994;28;20029;-81
2023/09/26 00:35:47;;;;;;;1999.90;999.90;;;9.80;99.90;;;;;;5035366;28;20511;-81
2023/09/26 00:38:13;;;;;;;1999.90;999.90;;;9.90;99.90;;;;;;5036884;28;20042;-81
2023/09/26 00:40:42;;;;;;;1999.90;999.90;;;9.90;99.90;;;;;;5035276;28;20030;-81
2023/09/26 00:43:08;;;;;;;1999.90;999.90;;;9.90;99.90;;;;;;5035266;28;20444;-81
2023/09/26 00:45:35;;;;;;;1999.90;999.90;;;9.80;99.90;;;;;;5036720;28;20029;-81
2023/09/26 00:48:03;;;;;;;1999.90;999.90;;;9.80;99.90;;;;;;5036784;28;20861;-81
2023/09/26 00:50:28;;;;;;;1999.90;999.90;;;9.80;99.90;;;;;;5035164;28;20045;-81
2023/09/26 00:52:55;;;;;;;1999.90;999.90;;;9.80;99.90;;;;;;5036891;28;20037;-81
2023/09/26 00:55:22;;;;;;;1999.90;999.90;;;9.80;99.90;;;;;;5035264;28;20038;-80
2023/09/26 00:57:48;;;;;;;1999.90;999.90;;;9.60;99.90;;;;;;5034624;28;20038;-81
2023/09/26 01:00:16;;;;;;;1999.90;999.90;;;9.60;99.90;;;;;;5036231;28;20026;-80
2023/09/26 01:02:42;;;;;;;1999.90;999.90;;;9.50;99.90;;;;;;5036384;28;20030;-79
2023/09/26 01:05:08;;;;;;;1999.90;999.90;;;9.50;99.90;;;;;;5035017;28;20041;-80
2023/09/26 01:07:35;;;;;;;1999.90;999.90;;;9.50;99.90;;;;;;5034762;28;20042;-81
2023/09/26 01:10:03;;;;;;;1999.90;999.90;;;9.50;99.90;;;;;;5036303;28;20034;-80
2023/09/26 01:12:29;;;;;;;1999.90;999.90;;;9.50;99.90;;;;;;5034912;28;20041;-80
2023/09/26 01:14:55;;;;;;;1999.90;999.90;;;9.50;99.90;;;;;;5035340;28;20056;-81
2023/09/26 01:17:21;;;;;;;1999.90;999.90;;;9.50;99.90;;;;;;5034527;28;20038;-80
2023/09/26 01:19:46;;;;;;;1999.90;999.90;;;9.50;99.90;;;;;;5036969;28;20108;-80
2023/09/26 01:22:16;;;;;;;1999.90;999.90;;;9.60;99.90;;;;;;5035200;28;20030;-80
2023/09/26 01:24:43;;;;;;;1999.90;999.90;;;9.70;99.90;;;;;;5035450;28;20092;-80
2023/09/26 01:27:09;;;;;;;1999.90;999.90;;;9.70;99.90;;;;;;5036839;28;20038;-80
2023/09/26 01:29:34;;;;;;;1999.90;999.90;;;9.70;99.90;;;;;;5036778;28;20034;-81
2023/09/26 01:32:00;;;;;;;1999.90;999.90;;;9.70;99.90;;;;;;5034776;28;20038;-80
2023/09/26 01:34:26;;;;;;;1999.90;999.90;;;9.70;99.90;;;;;;5035421;28;20038;-80
2023/09/26 01:36:51;;;;;;;1999.90;999.90;;;9.70;99.90;;;;;;5036400;28;20052;-81
2023/09/26 01:39:17;;;;;;;1999.90;999.90;;;9.80;99.90;;;;;;5036860;28;20076;-80
2023/09/26 01:41:42;;;;;;;1999.90;999.90;;;9.80;99.90;;;;;;5036838;28;20049;-81
2023/09/26 01:44:08;;;;;;;1999.90;999.90;;;9.70;99.90;;;;;;5035192;28;20372;-80
2023/09/26 01:46:34;;;;;;;1999.90;999.90;;;9.60;99.90;;;;;;5035024;28;20038;-80
2023/09/26 01:49:00;;;;;;;1999.90;999.90;;;9.50;99.90;;;;;;5035336;28;20034;-80
2023/09/26 01:51:26;;;;;;;1999.90;999.90;;;9.40;99.90;;;;;;5035144;28;20125;-79
2023/09/26 01:53:51;;;;;;;1999.90;999.90;;;9.40;99.90;;;;;;5037680;28;20038;-80
2023/09/26 01:56:17;;;;;;;1999.90;999.90;;;9.30;99.90;;;;;;5035228;28;20076;-81
2023/09/26 01:58:43;;;;;;;1999.90;999.90;;;9.30;99.90;;;;;;5037068;28;20133;-80
2023/09/26 02:01:08;;;;;;;1999.90;999.90;;;9.10;99.90;;;;;;5059126;22;20049;-74
2023/09/26 02:03:35;;;;;;;1999.90;999.90;;;9.30;99.90;;;;;;5074942;28;20520;-74
2023/09/26 02:06:00;;;;;;;1999.90;999.90;;;9.30;99.90;;;;;;5073124;28;20094;-74
2023/09/26 02:08:26;;;;;;;1999.90;999.90;;;9.30;99.90;;;;;;5074783;28;20087;-74
2023/09/26 02:10:52;;;;;;;1999.90;999.90;;;9.30;99.90;;;;;;5074613;28;21543;-74
2023/09/26 02:13:17;;;;;;;1999.90;999.90;;;9.20;99.90;;;;;;5074605;28;20032;-74
2023/09/26 02:15:43;;;;;;;1999.90;999.90;;;9.20;99.90;;;;;;5074502;28;20041;-74
2023/09/26 02:18:08;;;;;;;1999.90;999.90;;;9.10;99.90;;;;;;5074529;28;20029;-74
2023/09/26 02:20:34;;;;;;;1999.90;999.90;;;9.00;99.90;;;;;;5074604;28;20448;-74
2023/09/26 02:23:00;;;;;;;1999.90;999.90;;;9.10;99.90;;;;;;5073417;28;20033;-74
2023/09/26 02:25:25;;;;;;;1999.90;999.90;;;9.00;99.90;;;;;;5074597;28;20120;-74
2023/09/26 02:27:51;;;;;;;1999.90;999.90;;;9.00;99.90;;;;;;5074348;28;20041;-74
2023/09/26 02:30:22;;;;;;;1999.90;999.90;;;9.00;99.90;;;;;;5074526;28;20456;-74
2023/09/26 02:32:48;;;;;;;1999.90;999.90;;;9.00;99.90;;;;;;5074397;28;20088;-74
2023/09/26 02:35:15;;;;;;;1999.90;999.90;;;9.00;99.90;;;;;;5074645;28;20510;-74
2023/09/26 02:37:42;;;;;;;1999.90;999.90;;;9.00;99.90;;;;;;5074151;28;20048;-73
2023/09/26 02:40:09;;;;;;;1999.90;999.90;;;9.00;99.90;;;;;;5074412;28;20559;-74
2023/09/26 02:42:36;;;;;;;1999.90;999.90;;;9.00;99.90;;;;;;5072749;28;20029;-74
2023/09/26 02:45:02;;;;;;;1999.90;999.90;;;8.90;99.90;;;;;;5074379;28;20033;-73
2023/09/26 02:47:28;;;;;;;1999.90;999.90;;;8.90;99.90;;;;;;5077583;28;20056;-74
2023/09/26 02:49:54;;;;;;;1999.90;999.90;;;8.90;99.90;;;;;;5076516;28;20040;-74
2023/09/26 02:52:20;;;;;;;1999.90;999.90;;;8.80;99.90;;;;;;5077701;28;20033;-74
2023/09/26 02:54:45;;;;;;;1999.90;999.90;;;8.80;99.90;;;;;;5077997;28;20068;-73
2023/09/26 02:57:11;;;;;;;1999.90;999.90;;;8.80;99.90;;;;;;5077455;28;20043;-73
2023/09/26 02:59:37;;;;;;;1999.90;999.90;;;8.80;99.90;;;;;;5077859;28;20029;-74
2023/09/26 03:02:02;;;;;;;1999.90;999.90;;;8.80;99.90;;;;;;5077331;28;20456;-74
2023/09/26 03:04:28;;;;;;;1999.90;999.90;;;8.90;99.90;;;;;;5077693;28;20057;-74
2023/09/26 03:06:54;;;;;;;1999.90;999.90;;;8.90;99.90;;;;;;5075750;28;20087;-73
2023/09/26 03:09:19;;;;;;;1999.90;999.90;;;8.80;99.90;;;;;;5076007;28;20028;-73
2023/09/26 03:11:45;;;;;;;1999.90;999.90;;;8.80;99.90;;;;;;5077132;28;20108;-73
2023/09/26 03:14:10;;;;;;;1999.90;999.90;;;8.80;99.90;;;;;;5077718;28;20033;-73
2023/09/26 03:16:36;;;;;;;1999.90;999.90;;;8.80;99.90;;;;;;5075693;28;20048;-73
2023/09/26 03:19:02;;;;;;;1999.90;999.90;;;8.80;99.90;;;;;;5077751;28;20549;-73
2023/09/26 03:21:28;;;;;;;1999.90;999.90;;;8.80;99.90;;;;;;5075798;28;20048;-73
2023/09/26 03:23:53;;;;;;;1999.90;999.90;;;8.80;99.90;;;;;;5077710;28;20040;-74
2023/09/26 03:26:19;;;;;;;1999.90;999.90;;;8.80;99.90;;;;;;5077016;28;20041;-74
2023/09/26 03:28:44;;;;;;;1999.90;999.90;;;8.70;99.90;;;;;;5077507;28;20037;-73
2023/09/26 03:31:10;;;;;;;1999.90;999.90;;;8.70;99.90;;;;;;5077099;28;20158;-73
2023/09/26 03:33:36;;;;;;;1999.90;999.90;;;8.70;99.90;;;;;;5077261;28;20032;-73
2023/09/26 03:36:03;;;;;;;1999.90;999.90;;;8.70;99.90;;;;;;5076813;28;20037;-74
2023/09/26 03:38:29;;;;;;;1999.90;999.90;;;8.70;99.90;;;;;;5075729;28;20060;-76
2023/09/26 03:41:03;;;;;;;1999.90;999.90;;;8.60;99.90;;;;;;5075286;28;20474;-76
2023/09/26 03:43:28;;;;;;;1999.90;999.90;;;8.60;99.90;;;;;;5077113;28;20086;-75
2023/09/26 03:46:02;;;;;;;1999.90;999.90;;;8.50;99.90;;;;;;5076956;28;20466;-75
2023/09/26 03:48:28;;;;;;;1999.90;999.90;;;8.60;99.90;;;;;;5077243;28;20033;-76
2023/09/26 03:50:53;;;;;;;1999.90;999.90;;;8.50;99.90;;;;;;5075312;28;20069;-75
2023/09/26 03:53:19;;;;;;;1999.90;999.90;;;8.40;99.90;;;;;;5075606;28;20029;-76
2023/09/26 03:55:55;;;;;;;1999.90;999.90;;;8.30;99.90;;;;;;5076563;28;20120;-75
2023/09/26 03:58:22;;;;;;;1999.90;999.90;;;8.40;99.90;;;;;;5077207;28;20108;-75
2023/09/26 04:00:47;;;;;;;1999.90;999.90;;;8.30;99.90;;;;;;5076369;28;20033;-75
2023/09/26 04:03:13;;;;;;;1999.90;999.90;;;8.30;99.90;;;;;;5076835;28;20037;-75
2023/09/26 04:05:40;;;;;;;1999.90;999.90;;;8.30;99.90;;;;;;5076635;28;20068;-75
2023/09/26 04:08:05;;;;;;;1999.90;999.90;;;8.30;99.90;;;;;;5076514;28;20079;-76
2023/09/26 04:10:36;;;;;;;1999.90;999.90;;;8.20;99.90;;;;;;5075582;28;20033;-76
2023/09/26 04:13:02;;;;;;;1999.90;999.90;;;8.20;99.90;;;;;;5075459;28;20041;-75
2023/09/26 04:15:28;;;;;;;1999.90;999.90;;;8.30;99.90;;;;;;5076894;28;20025;-75
2023/09/26 04:17:54;;;;;;;1999.90;999.90;;;8.30;99.90;;;;;;5076575;28;20052;-75
2023/09/26 04:20:20;;;;;;;1999.90;999.90;;;8.30;99.90;;;;;;5076767;28;20075;-74
2023/09/26 04:22:47;;;;;;;1999.90;999.90;;;8.30;99.90;;;;;;5076764;28;20107;-74
2023/09/26 04:25:12;;;;;;;1999.90;999.90;;;8.30;99.90;;;;;;5076714;28;20032;-74
2023/09/26 04:27:38;;;;;;;1999.90;999.90;;;8.30;99.90;;;;;;5076540;28;20038;-74
2023/09/26 04:30:06;;;;;;;1999.90;999.90;;;8.20;99.90;;;;;;5076753;28;20033;-74
2023/09/26 04:32:32;;;;;;;1999.90;999.90;;;8.20;99.90;;;;;;5074926;28;20069;-75
2023/09/26 04:34:57;;;;;;;1999.90;999.90;;;8.20;99.90;;;;;;5076584;28;20126;-75
2023/09/26 04:37:23;;;;;;;1999.90;999.90;;;8.20;99.90;;;;;;5076435;28;20076;-76
2023/09/26 04:39:48;;;;;;;1999.90;999.90;;;8.20;99.90;;;;;;5075948;28;20632;-75
2023/09/26 04:42:14;;;;;;;1999.90;999.90;;;8.10;99.90;;;;;;5076516;28;20029;-74
2023/09/26 04:44:40;;;;;;;1999.90;999.90;;;8.20;99.90;;;;;;5074921;28;20029;-75
2023/09/26 04:47:05;;;;;;;1999.90;999.90;;;8.20;99.90;;;;;;5074537;28;20120;-74
2023/09/26 04:49:34;;;;;;;1999.90;999.90;;;8.10;99.90;;;;;;5074593;28;20029;-74
2023/09/26 04:51:59;;;;;;;1999.90;999.90;;;8.20;99.90;;;;;;5074663;28;20498;-74
2023/09/26 04:54:25;;;;;;;1999.90;999.90;;;8.20;99.90;;;;;;5074722;28;20033;-74
2023/09/26 04:56:50;;;;;;;1999.90;999.90;;;8.20;99.90;;;;;;5075991;28;20029;-75
2023/09/26 04:59:16;;;;;;;1999.90;999.90;;;8.20;99.90;;;;;;5076344;28;20557;-74
2023/09/26 05:01:42;;;;;;;1999.90;999.90;;;8.30;99.90;;;;;;5073991;28;20407;-74
2023/09/26 05:04:08;;;;;;;1999.90;999.90;;;8.30;99.90;;;;;;5074732;28;20029;-74
2023/09/26 05:06:33;;;;;;;1999.90;999.90;;;8.30;99.90;;;;;;5074138;28;20044;-75
2023/09/26 05:08:59;;;;;;;1999.90;999.90;;;8.30;99.90;;;;;;5075496;28;20036;-75
2023/09/26 05:11:27;;;;;;;1999.90;999.90;;;8.30;99.90;;;;;;5075943;28;20037;-74
2023/09/26 05:13:53;;;;;;;1999.90;999.90;;;8.30;99.90;;;;;;5074519;28;20036;-74
2023/09/26 05:16:19;;;;;;;1999.90;999.90;;;8.30;99.90;;;;;;5074549;28;20083;-74
2023/09/26 05:18:44;;;;;;;1999.90;999.90;;;8.30;99.90;;;;;;5075895;28;20116;-75
2023/09/26 05:21:11;;;;;;;1999.90;999.90;;;8.30;99.90;;;;;;5074234;28;20476;-74
2023/09/26 05:23:37;;;;;;;1999.90;999.90;;;8.30;99.90;;;;;;5075770;28;20033;-74
2023/09/26 05:26:11;;;;;;;1999.90;999.90;;;8.30;99.90;;;;;;5074263;28;20090;-76
2023/09/26 05:28:37;;;;;;;1999.90;999.90;;;8.20;99.90;;;;;;5074150;28;20029;-74
2023/09/26 05:31:02;;;;;;;1999.90;999.90;;;8.20;99.90;;;;;;5074011;28;20128;-74
2023/09/26 05:33:28;;;;;;;1999.90;999.90;;;8.20;99.90;;;;;;5075530;28;20040;-74
2023/09/26 05:35:55;;;;;;;1999.90;999.90;;;8.20;99.90;;;;;;5073923;28;20035;-74
2023/09/26 05:38:21;;;;;;;1999.90;999.90;;;8.30;99.90;;;;;;5074319;28;20124;-75
2023/09/26 05:40:47;;;;;;;1999.90;999.90;;;8.30;99.90;;;;;;5075239;28;20037;-75
2023/09/26 05:43:13;;;;;;;1999.90;999.90;;;8.30;99.90;;;;;;5075720;28;20478;-75
2023/09/26 05:45:38;;;;;;;1999.90;999.90;;;8.30;99.90;;;;;;5075396;28;20025;-77
2023/09/26 05:48:04;;;;;;;1999.90;999.90;;;8.30;99.90;;;;;;5073894;28;20091;-75
2023/09/26 05:50:30;;;;;;;1999.90;999.90;;;8.30;99.90;;;;;;5075461;28;20076;-75
2023/09/26 05:52:56;;;;;;;1999.90;999.90;;;8.30;99.90;;;;;;5073931;28;20139;-74
2023/09/26 05:55:22;;;;;;;1999.90;999.90;;;8.30;99.90;;;;;;5074101;28;20175;-74
2023/09/26 05:57:48;;;;;;;1999.90;999.90;;;8.30;99.90;;;;;;5074077;28;20047;-75
2023/09/26 06:00:14;;;;;;;1999.90;999.90;;;8.30;99.90;;;;;;5075516;28;20044;-78
2023/09/26 06:02:40;;;;;;;1999.90;999.90;;;8.30;99.90;;;;;;5074961;28;20033;-74
2023/09/26 06:05:06;;;;;;;1999.90;999.90;;;8.30;99.90;;;;;;5075091;28;20478;-75
2023/09/26 06:07:32;;;;;;;1999.90;999.90;;;8.40;99.90;;;;;;5073675;28;20068;-75
2023/09/26 06:09:58;;;;;;;1999.90;999.90;;;8.50;99.90;;;;;;5075060;28;20393;-74
2023/09/26 06:12:24;;;;;;;1999.90;999.90;;;8.50;99.90;;;;;;5074891;28;20506;-75
2023/09/26 06:14:51;;;;;;;1999.90;999.90;;;8.50;99.90;;;;;;5073491;28;20111;-74
2023/09/26 06:17:17;;;;;;;1999.90;999.90;;;8.50;99.90;;;;;;5073056;28;20028;-74
2023/09/26 06:19:47;;;;;;;1999.90;999.90;;;8.60;99.90;;;;;;5073372;28;20478;-74
2023/09/26 06:22:42;;;;;;;1999.90;999.90;;;8.70;99.90;;;;;;5074748;28;20029;-78
2023/09/26 06:25:31;;;;;;;1999.90;999.90;;;8.70;99.90;;;;;;5076434;28;20120;-77
2023/09/26 06:27:56;;;;;;;1999.90;999.90;;;8.80;99.90;;;;;;5073901;28;20041;-76
2023/09/26 06:30:22;;;;;;;1999.90;999.90;;;8.80;99.90;;;;;;5075211;28;20033;-73
2023/09/26 06:32:47;;;;;;;1999.90;999.90;;;8.80;99.90;;;;;;5074455;28;20033;-74
2023/09/26 06:35:13;;;;;;;1999.90;999.90;;;8.90;99.90;;;;;;5073163;28;20036;-72
2023/09/26 06:37:38;;;;;;;1999.90;999.90;;;9.00;99.90;;;;;;5074606;28;20094;-72
2023/09/26 06:40:05;;;;;;;1999.90;999.90;;;9.10;99.90;;;;;;5074699;28;20402;-73
2023/09/26 06:42:31;;;;;;;1999.90;999.90;;;9.20;99.90;;;;;;5074292;28;20536;-73
2023/09/26 06:44:57;;;;;;;1999.90;999.90;;;9.30;99.90;;;;;;5074681;28;20457;-73
2023/09/26 06:47:24;;;;;;;1999.90;999.90;;;9.40;99.90;;;;;;5074252;28;20490;-73
2023/09/26 06:49:49;;;;;;;1999.90;999.90;;;9.50;99.90;;;;;;5074399;28;20095;-73
2023/09/26 06:52:15;;;;;;;1999.90;999.90;;;9.60;99.90;;;;;;5073997;28;20029;-73
2023/09/26 06:54:41;;;;;;;1999.90;999.90;;;9.70;99.90;;;;;;5074469;28;20033;-73
2023/09/26 06:57:08;;;;;;;1999.90;999.90;;;9.80;99.90;;;;;;5073619;28;20037;-74
2023/09/26 06:59:35;;;;;;;1999.90;999.90;;;9.90;99.90;;;;;;5074391;28;20056;-74
2023/09/26 07:02:00;;;;;;;1999.90;999.90;;;10.00;99.90;;;;;;5072514;28;20041;-77
2023/09/26 07:04:26;;;;;;;1999.90;999.90;;;10.10;99.90;;;;;;5074109;28;20029;-73
2023/09/26 07:06:51;;;;;;;1999.90;999.90;;;10.30;99.90;;;;;;5073722;28;20077;-73
2023/09/26 07:09:17;;;;;;;1999.90;999.90;;;10.40;99.90;;;;;;5074014;28;20040;-73
2023/09/26 07:11:42;;;;;;;1999.90;999.90;;;10.50;99.90;;;;;;5074091;28;20040;-74
2023/09/26 07:14:08;;;;;;;1999.90;999.90;;;10.70;99.90;;;;;;5074164;28;20055;-74
2023/09/26 07:16:34;;;;;;;1999.90;999.90;;;10.80;99.90;;;;;;5074038;28;20566;-73
2023/09/26 07:19:00;;;;;;;1999.90;999.90;;;10.90;99.90;;;;;;5072722;28;20041;-73
2023/09/26 07:21:25;;;;;;;1999.90;999.90;;;11.00;99.90;;;;;;5074085;28;20029;-73
2023/09/26 07:23:51;;;;;;;1999.90;999.90;;;11.10;99.90;;;;;;5074218;28;20029;-73
2023/09/26 07:26:17;;;;;;;1999.90;999.90;;;11.20;99.90;;;;;;5074229;28;20491;-73
2023/09/26 07:28:47;;;;;;;1999.90;999.90;;;11.30;99.90;;;;;;5074382;28;20029;-73
2023/09/26 07:31:14;;;;;;;1999.90;999.90;;;11.40;99.90;;;;;;5075908;28;20036;-73
2023/09/26 07:33:41;;;;;;;1999.90;999.90;;;11.50;99.90;;;;;;5077668;28;20029;-74
2023/09/26 07:36:07;;;;;;;1999.90;999.90;;;11.70;99.90;;;;;;5077453;28;20039;-73
2023/09/26 07:38:34;;;;;;;1999.90;999.90;;;11.70;99.90;;;;;;5077408;28;20037;-73
2023/09/26 07:41:00;;;;;;;1999.90;999.90;;;11.90;99.90;;;;;;5075538;28;20032;-74
2023/09/26 07:43:29;;;;;;;1999.90;999.90;;;12.00;99.90;;;;;;5077107;28;20033;-73
2023/09/26 07:46:09;;;;;;;1999.90;999.90;;;12.20;99.90;;;;;;5076571;28;20534;-74
2023/09/26 07:48:35;;;;;;;1999.90;999.90;;;12.30;99.90;;;;;;5075654;28;20041;-74
2023/09/26 07:51:02;;;;;;;1999.90;999.90;;;12.40;99.90;;;;;;5074927;28;20025;-74
2023/09/26 07:53:27;;;;;;;1999.90;999.90;;;12.50;99.90;;;;;;5077156;28;20029;-74
2023/09/26 07:55:56;;;;;;;1999.90;999.90;;;12.60;99.90;;;;;;5074709;28;20033;-74
2023/09/26 07:58:22;;;;;;;1999.90;999.90;;;12.70;99.90;;;;;;5076710;28;20048;-74
2023/09/26 08:00:48;;;;;;;1999.90;999.90;;;12.90;99.90;;;;;;5076132;28;20040;-74
2023/09/26 08:03:13;;;;;;;1999.90;999.90;;;13.00;99.90;;;;;;5090769;22;20110;-71
2023/09/26 08:05:39;;;;;;;1999.90;999.90;;;13.10;99.90;;;;;;5076673;28;20041;-71
2023/09/26 08:08:05;;;;;;;1999.90;999.90;;;13.20;99.90;;;;;;5075047;28;20037;-70
2023/09/26 08:10:31;;;;;;;1999.90;999.90;;;13.40;99.90;;;;;;5076867;28;20474;-70
2023/09/26 08:12:57;;;;;;;1999.90;999.90;;;13.50;99.90;;;;;;5075089;28;20090;-70
2023/09/26 08:15:24;;;;;;;1999.90;999.90;;;13.80;99.90;;;;;;5076693;28;20103;-71
2023/09/26 08:17:49;;;;;;;1999.90;999.90;;;13.90;99.90;;;;;;5076208;28;20041;-71
2023/09/26 08:20:16;;;;;;;1999.90;999.90;;;14.00;99.90;;;;;;5075941;28;20090;-70
2023/09/26 08:22:41;;;;;;;1999.90;999.90;;;14.10;99.90;;;;;;5076284;28;20040;-71
2023/09/26 08:25:08;;;;;;;1999.90;999.90;;;14.30;99.90;;;;;;5072184;28;20033;-71
2023/09/26 08:27:33;;;;;;;1999.90;999.90;;;14.40;99.90;;;;;;5065232;28;20208;-71
2023/09/26 08:29:59;;;;;;;1999.90;999.90;;;14.60;99.90;;;;;;5075357;28;20127;-71
2023/09/26 08:32:25;;;;;;;1999.90;999.90;;;14.70;99.90;;;;;;5074732;28;20039;-72
2023/09/26 08:34:51;;;;;;;1999.90;999.90;;;14.80;99.90;;;;;;5076098;28;20025;-71
2023/09/26 08:37:16;;;;;;;1999.90;999.90;;;15.00;99.90;;;;;;5074496;28;20041;-71
2023/09/26 08:39:43;;;;;;;1999.90;999.90;;;15.10;99.90;;;;;;5075502;28;20090;-71
2023/09/26 08:42:15;;;;;;;1999.90;999.90;;;15.20;99.90;;;;;;5074834;28;20037;-71
2023/09/26 08:44:41;;;;;;;1999.90;999.90;;;15.30;99.90;;;;;;5076026;28;20025;-71
2023/09/26 08:47:07;;;;;;;1999.90;999.90;;;15.50;99.90;;;;;;5075063;28;20045;-71
2023/09/26 08:49:33;;;;;;;1999.90;999.90;;;15.60;99.90;;;;;;5075937;28;20475;-71
2023/09/26 08:51:59;;;;;;;1999.90;999.90;;;15.80;99.90;;;;;;5074145;28;20068;-71
2023/09/26 08:54:25;;;;;;;1999.90;999.90;;;15.90;99.90;;;;;;5076028;28;20097;-71
2023/09/26 08:56:51;;;;;;;1999.90;999.90;;;16.00;99.90;;;;;;5075765;28;20041;-71
2023/09/26 08:59:19;;;;;;;1999.90;999.90;;;16.20;99.90;;;;;;5076027;28;20483;-70
2023/09/26 09:01:46;;;;;;;1999.90;999.90;;;16.30;99.90;;;;;;5074949;28;20584;-72
2023/09/26 09:04:12;;;;;;;1999.90;999.90;;;16.20;99.90;;;;;;5075815;28;20037;-73
2023/09/26 09:06:38;;;;;;;1999.90;999.90;;;16.20;99.90;;;;;;5075192;28;20068;-71
2023/09/26 09:09:13;;;;;;;1999.90;999.90;;;16.40;99.90;;;;;;5074176;28;20486;-72
2023/09/26 09:11:38;;;;;;;1999.90;999.90;;;16.60;99.90;;;;;;5075691;28;20413;-74
2023/09/26 09:14:06;;;;;;;1999.90;999.90;;;16.60;99.90;;;;;;5075862;28;20037;-72
2023/09/26 09:16:31;;;;;;;1999.90;999.90;;;16.80;99.90;;;;;;5075324;28;20029;-73
2023/09/26 09:18:58;;;;;;;1999.90;999.90;;;16.90;99.90;;;;;;5075701;28;20613;-75
2023/09/26 09:21:30;;;;;;;1999.90;999.90;;;17.00;99.90;;;;;;5064680;28;20892;-71
2023/09/26 09:23:57;;;;;;;1999.90;999.90;;;17.20;99.90;;;;;;5055338;28;20033;-75
2023/09/26 09:26:24;;;;;;;1999.90;999.90;;;17.30;99.90;;;;;;5055104;28;20045;-79
2023/09/26 09:28:52;;;;;;;1999.90;999.90;;;17.30;99.90;;;;;;5055457;28;20126;-78
2023/09/26 09:31:18;;;;;;;1999.90;999.90;;;17.40;99.90;;;;;;5053609;28;20097;-72
2023/09/26 09:33:45;;;;;;;1999.90;999.90;;;17.50;99.90;;;;;;5053686;28;20120;-73
2023/09/26 09:36:12;;;;;;;1999.90;999.90;;;17.60;99.90;;;;;;5054900;28;20037;-74
2023/09/26 09:38:38;;;;;;;1999.90;999.90;;;17.70;99.90;;;;;;5055133;28;20107;-73
2023/09/26 09:41:04;;;;;;;1999.90;999.90;;;17.90;99.90;;;;;;5053727;28;20040;-73
2023/09/26 09:43:29;;;;;;;1999.90;999.90;;;18.00;99.90;;;;;;5054873;28;20453;-74
2023/09/26 09:46:00;;;;;;;1999.90;999.90;;;18.30;99.90;;;;;;5054685;28;20390;-75
2023/09/26 09:48:28;;;;;;;1999.90;999.90;;;18.30;99.90;;;;;;5055359;28;20469;-75
2023/09/26 09:50:54;;;;;;;1999.90;999.90;;;18.30;99.90;;;;;;5054922;28;20029;-75
2023/09/26 09:53:22;;;;;;;1999.90;999.90;;;18.50;99.90;;;;;;5054732;28;20789;-76
2023/09/26 09:55:51;;;;;;;1999.90;999.90;;;18.60;99.90;;;;;;5053274;28;20034;-75
2023/09/26 09:58:21;;;;;;;1999.90;999.90;;;18.70;99.90;;;;;;5054666;28;20080;-75
2023/09/26 10:00:47;;;;;;;1999.90;999.90;;;18.90;99.90;;;;;;5087143;28;20034;-75
2023/09/26 10:03:13;;;;;;;1999.90;999.90;;;18.90;99.90;;;;;;5052961;28;20091;-75
2023/09/26 10:05:39;;;;;;;1999.90;999.90;;;19.10;99.90;;;;;;5086940;28;20079;-76
2023/09/26 10:08:07;;;;;;;1999.90;999.90;;;19.10;99.90;;;;;;5054570;28;20048;-77
2023/09/26 10:10:33;;;;;;;1999.90;999.90;;;19.30;99.90;;;;;;5054721;28;20040;-75
2023/09/26 10:12:59;;;;;;;1999.90;999.90;;;19.30;99.90;;;;;;5054591;28;20044;-77
2023/09/26 10:15:25;;;;;;;1999.90;999.90;;;19.30;99.90;;;;;;5054660;28;20037;-76
2023/09/26 10:17:51;;;;;;;1999.90;999.90;;;19.50;99.90;;;;;;5054432;28;20033;-77
2023/09/26 10:20:17;;;;;;;1999.90;999.90;;;19.50;99.90;;;;;;5054723;28;20025;-76
2023/09/26 10:22:44;;;;;;;1999.90;999.90;;;19.60;99.90;;;;;;5053779;28;20022;-77
2023/09/26 10:25:18;;;;;;;1999.90;999.90;;;19.80;99.90;;;;;;5053218;28;20040;-75
2023/09/26 10:27:47;;;;;;;1999.90;999.90;;;20.00;99.90;;;;;;5054786;28;20514;-76
2023/09/26 10:30:18;;;;;;;1999.90;999.90;;;20.20;99.90;;;;;;5054461;28;20180;-75
2023/09/26 10:32:44;;;;;;;1999.90;999.90;;;20.20;99.90;;;;;;5052755;28;20041;-76
2023/09/26 10:35:13;;;;;;;1999.90;999.90;;;20.30;99.90;;;;;;5052946;28;20037;-76
2023/09/26 10:37:40;;;;;;;1999.90;999.90;;;20.40;99.90;;;;;;5054255;28;20033;-76
2023/09/26 10:40:10;;;;;;;1999.90;999.90;;;20.40;99.90;;;;;;5054346;28;20096;-76
2023/09/26 10:42:44;;;;;;;1999.90;999.90;;;20.50;99.90;;;;;;5054476;28;20824;-76
2023/09/26 10:45:10;;;;;;;1999.90;999.90;;;20.50;99.90;;;;;;5054812;28;20116;-76
2023/09/26 10:47:38;;;;;;;1999.90;999.90;;;20.60;99.90;;;;;;5054626;28;20111;-76
2023/09/26 10:50:13;;;;;;;1999.90;999.90;;;20.80;99.90;;;;;;5054820;28;20026;-76
2023/09/26 10:52:49;;;;;;;1999.90;999.90;;;20.80;99.90;;;;;;5052537;28;20044;-76
2023/09/26 10:55:21;;;;;;;1999.90;999.90;;;20.70;99.90;;;;;;5054461;28;20029;-76
2023/09/26 10:57:50;;;;;;;1999.90;999.90;;;20.90;99.90;;;;;;5052672;28;20038;-76
2023/09/26 11:00:17;;;;;;;1999.90;999.90;;;21.00;99.90;;;;;;5054110;28;20030;-76
2023/09/26 11:02:43;;;;;;;1999.90;999.90;;;21.10;99.90;;;;;;5053547;28;20037;-75
2023/09/26 11:05:11;;;;;;;1999.90;999.90;;;21.40;99.90;;;;;;5052931;28;20037;-76
2023/09/26 11:07:40;;;;;;;1999.90;999.90;;;21.40;99.90;;;;;;5056992;28;20038;-76
2023/09/26 11:10:14;;;;;;;1999.90;999.90;;;21.40;99.90;;;;;;5057563;28;20038;-76
2023/09/26 11:12:40;;;;;;;1999.90;999.90;;;21.30;99.90;;;;;;5057221;28;20040;-76
2023/09/26 11:15:07;;;;;;;1999.90;999.90;;;21.30;99.90;;;;;;5057509;28;20116;-76
2023/09/26 11:17:34;;;;;;;1999.90;999.90;;;21.50;99.90;;;;;;5057152;28;20032;-76
2023/09/26 11:20:00;;;;;;;1999.90;999.90;;;21.50;99.90;;;;;;5057220;28;20034;-76
2023/09/26 11:22:26;;;;;;;1999.90;999.90;;;21.50;99.90;;;;;;5057268;28;20038;-76
2023/09/26 11:25:08;;;;;;;1999.90;999.90;;;21.70;99.90;;;;;;5056907;28;20033;-76
2023/09/26 11:27:39;;;;;;;1999.90;999.90;;;22.00;99.90;;;;;;5056968;28;20061;-76
2023/09/26 11:30:07;;;;;;;1999.90;999.90;;;22.20;99.90;;;;;;5057137;28;20117;-77
2023/09/26 11:32:34;;;;;;;1999.90;999.90;;;22.40;99.90;;;;;;5056800;28;20038;-77
2023/09/26 11:35:00;;;;;;;1999.90;999.90;;;22.50;99.90;;;;;;5057140;28;20090;-77
2023/09/26 11:37:29;;;;;;;1999.90;999.90;;;22.70;99.90;;;;;;5056812;28;20068;-78
2023/09/26 11:39:55;;;;;;;1999.90;999.90;;;22.80;99.90;;;;;;5056985;28;20495;-75
2023/09/26 11:42:21;;;;;;;1999.90;999.90;;;22.90;99.90;;;;;;5055631;28;20046;-79
2023/09/26 11:44:54;;;;;;;1999.90;999.90;;;22.90;99.90;;;;;;5056671;28;20386;-76
2023/09/26 11:47:24;;;;;;;1999.90;999.90;;;23.00;99.90;;;;;;5056591;28;20037;-76
2023/09/26 11:49:51;;;;;;;1999.90;999.90;;;23.00;99.90;;;;;;5089249;28;20055;-76
2023/09/26 11:52:17;;;;;;;1999.90;999.90;;;22.80;99.90;;;;;;5056745;28;20116;-75
2023/09/26 11:54:44;;;;;;;1999.90;999.90;;;22.80;99.90;;;;;;5056962;28;20495;-76
2023/09/26 11:57:12;;;;;;;1999.90;999.90;;;22.80;99.90;;;;;;5056506;28;20037;-76
2023/09/26 11:59:38;;;;;;;1999.90;999.90;;;22.90;99.90;;;;;;5056635;28;20025;-76
2023/09/26 12:02:03;;;;;;;1999.90;999.90;;;23.10;99.90;;;;;;5063989;28;20040;-76